createdAt,value
2023-03-12T00:03:45.207Z,-1.72
2023-03-12T00:07:48.154Z,-1.59
2023-03-12T00:11:52.417Z,-1.60
2023-03-12T00:15:55.409Z,-1.71
2023-03-12T00:19:58.623Z,-1.75
2023-03-12T00:24:01.921Z,-1.86
2023-03-12T00:28:06.888Z,-1.90
2023-03-12T00:32:12.803Z,-1.96
2023-03-12T00:36:15.616Z,-2.00
2023-03-12T00:40:18.857Z,-2.00
2023-03-12T00:44:23.297Z,-2.13
2023-03-12T00:48:26.625Z,-2.17
2023-03-12T00:52:29.540Z,-2.27
2023-03-12T00:56:32.473Z,-2.24
2023-03-12T01:00:37.056Z,-2.21
2023-03-12T01:04:39.783Z,-2.26
2023-03-12T01:08:42.682Z,-2.27
2023-03-12T01:12:45.748Z,-2.23
2023-03-12T01:16:52.349Z,-2.12
2023-03-12T01:20:55.643Z,-1.81
2023-03-12T01:24:58.541Z,-1.55
2023-03-12T01:29:01.444Z,-1.38
2023-03-12T01:33:09.087Z,-1.29
2023-03-12T01:37:12.716Z,-1.23
2023-03-12T01:41:18.415Z,-1.16
2023-03-12T01:46:00.269Z,-1.09
2023-03-12T01:50:05.964Z,-1.03
2023-03-12T01:54:13.369Z,-0.98
2023-03-12T01:58:17.192Z,-0.92
2023-03-12T02:02:27.235Z,-0.90
2023-03-12T02:06:38.691Z,-0.85
2023-03-12T02:10:42.072Z,-0.83
2023-03-12T02:14:52.944Z,-0.74
2023-03-12T02:19:02.228Z,-0.62
2023-03-12T02:23:10.359Z,-0.56
2023-03-12T02:27:14.646Z,-0.52
2023-03-12T02:31:21.229Z,-0.50
2023-03-12T02:35:24.655Z,-0.48
2023-03-12T02:39:28.343Z,-0.53
2023-03-12T02:43:33.223Z,-0.60
2023-03-12T02:47:36.385Z,-0.63
2023-03-12T02:51:39.421Z,-0.77
2023-03-12T02:55:42.249Z,-0.95
2023-03-12T02:59:46.896Z,-1.07
2023-03-12T03:03:50.285Z,-1.15
2023-03-12T03:07:53.454Z,-1.09
2023-03-12T03:11:56.403Z,-1.04
2023-03-12T03:16:02.177Z,-0.89
2023-03-12T03:20:07.771Z,-0.81
2023-03-12T03:24:11.610Z,-0.66
2023-03-12T03:28:14.585Z,-0.51
2023-03-12T03:32:19.053Z,-0.44
2023-03-12T03:36:23.428Z,-0.32
2023-03-12T03:40:26.336Z,-0.27
2023-03-12T03:44:29.618Z,-0.25
2023-03-12T03:48:34.424Z,-0.22
2023-03-12T03:52:37.709Z,-0.24
2023-03-12T03:56:42.312Z,-0.19
2023-03-12T04:00:46.558Z,-0.12
2023-03-12T04:04:51.471Z,-0.17
2023-03-12T04:08:54.362Z,-0.17
2023-03-12T04:12:57.481Z,-0.15
2023-03-12T04:17:00.657Z,-0.17
2023-03-12T04:21:06.053Z,-0.10
2023-03-12T04:25:09.388Z,-0.13
2023-03-12T04:29:12.464Z,-0.12
2023-03-12T04:33:15.375Z,-0.10
2023-03-12T04:37:20.097Z,-0.11
2023-03-12T04:41:23.177Z,-0.10
2023-03-12T04:45:26.170Z,-0.09
2023-03-12T04:49:29.351Z,-0.09
2023-03-12T04:53:34.239Z,-0.05
2023-03-12T04:57:37.507Z,-0.02
2023-03-12T05:01:40.732Z,0.01
2023-03-12T05:05:43.805Z,0.01
2023-03-12T05:09:47.966Z,0.02
2023-03-12T05:13:51.131Z,0.08
2023-03-12T05:17:54.966Z,0.09
2023-03-12T05:21:57.637Z,0.09
2023-03-12T05:26:01.953Z,0.10
2023-03-12T05:30:05.191Z,0.14
2023-03-12T05:34:08.251Z,0.19
2023-03-12T05:38:11.341Z,0.21
2023-03-12T05:42:16.960Z,0.30
2023-03-12T05:46:19.785Z,0.35
2023-03-12T05:50:22.710Z,0.38
2023-03-12T05:54:25.689Z,0.48
2023-03-12T05:58:31.484Z,0.55
2023-03-12T06:02:34.417Z,0.59
2023-03-12T06:06:38.826Z,0.68
2023-03-12T06:10:42.269Z,0.74
2023-03-12T06:14:46.679Z,0.74
2023-03-12T06:18:50.015Z,0.71
2023-03-12T06:22:53.077Z,0.67
2023-03-12T06:26:56.422Z,0.60
2023-03-12T06:31:00.871Z,0.77
2023-03-12T06:35:04.826Z,1.03
2023-03-12T06:39:09.263Z,1.11
2023-03-12T06:43:12.569Z,0.94
2023-03-12T06:47:17.806Z,0.77
2023-03-12T06:51:21.248Z,0.62
2023-03-12T06:55:26.272Z,0.87
2023-03-12T06:59:29.539Z,1.10
2023-03-12T07:03:34.423Z,1.34
2023-03-12T07:07:37.360Z,1.83
2023-03-12T07:11:40.394Z,4.91
2023-03-12T07:15:45.327Z,7.82
2023-03-12T07:19:50.046Z,8.92
2023-03-12T07:23:53.719Z,7.32
2023-03-12T07:27:56.023Z,6.47
2023-03-12T07:31:59.313Z,4.75
2023-03-12T07:36:04.453Z,3.61
2023-03-12T07:40:10.898Z,3.04
2023-03-12T07:44:14.449Z,3.01
2023-03-12T07:48:19.973Z,3.12
2023-03-12T07:52:24.513Z,3.76
2023-03-12T07:56:27.623Z,6.89
2023-03-12T08:00:31.629Z,7.28
2023-03-12T08:04:38.574Z,7.77
2023-03-12T08:08:43.104Z,5.71
2023-03-12T08:12:46.632Z,6.39
2023-03-12T08:16:49.956Z,7.79
2023-03-12T08:20:53.459Z,7.53
2023-03-12T08:25:00.418Z,7.39
2023-03-12T08:29:03.596Z,7.44
2023-03-12T08:33:06.122Z,7.26
2023-03-12T08:37:09.175Z,5.69
2023-03-12T08:41:14.235Z,4.17
2023-03-12T08:45:17.839Z,4.15
2023-03-12T08:49:23.902Z,5.77
2023-03-12T08:53:27.798Z,6.61
2023-03-12T08:57:32.845Z,4.88
2023-03-12T09:01:36.049Z,3.80
2023-03-12T09:05:38.797Z,3.36
2023-03-12T09:09:41.952Z,4.47
2023-03-12T09:14:22.243Z,4.44
2023-03-12T09:18:11.143Z,6.70
2023-03-12T09:22:14.043Z,8.65
2023-03-12T09:26:19.161Z,9.56
2023-03-12T09:30:26.690Z,6.16
2023-03-12T09:34:30.079Z,5.66
2023-03-12T09:38:35.648Z,5.25
2023-03-12T09:42:47.543Z,5.02
2023-03-12T09:46:56.972Z,7.08
2023-03-12T09:51:04.432Z,7.53
2023-03-12T09:55:15.121Z,5.93
2023-03-12T09:59:18.336Z,5.29
2023-03-12T10:03:36.923Z,5.25
2023-03-12T10:07:48.684Z,4.79
2023-03-12T10:11:58.825Z,4.60
2023-03-12T10:16:13.459Z,4.77
2023-03-12T10:20:51.888Z,4.60
2023-03-12T10:25:02.398Z,4.31
2023-03-12T10:29:12.740Z,4.64
2023-03-12T10:33:18.916Z,4.80
2023-03-12T10:37:26.995Z,4.70
2023-03-12T10:41:34.616Z,5.35
2023-03-12T10:45:43.638Z,5.03
2023-03-12T10:49:50.691Z,4.88
2023-03-12T10:53:55.124Z,5.09
2023-03-12T10:57:59.074Z,5.44
2023-03-12T11:02:03.434Z,5.70
2023-03-12T11:06:10.535Z,5.63
2023-03-12T11:10:21.625Z,5.47
2023-03-12T11:14:26.558Z,4.79
2023-03-12T11:18:33.815Z,4.92
2023-03-12T11:22:36.878Z,5.32
2023-03-12T11:26:50.971Z,6.02
2023-03-12T11:30:57.928Z,6.10
2023-03-12T11:35:01.917Z,6.03
2023-03-12T11:39:16.679Z,5.97
2023-03-12T11:43:44.450Z,5.69
2023-03-12T11:47:57.112Z,5.85
2023-03-12T11:52:06.997Z,6.25
2023-03-12T11:56:19.864Z,5.80
2023-03-12T12:00:36.871Z,5.72
2023-03-12T12:04:54.472Z,6.10
2023-03-12T12:09:11.923Z,6.60
2023-03-12T12:13:23.988Z,6.89
2023-03-12T12:17:43.118Z,6.71
2023-03-12T12:22:00.985Z,6.81
2023-03-12T12:26:11.377Z,6.41
2023-03-12T12:30:24.054Z,5.71
2023-03-12T12:35:00.548Z,6.00
2023-03-12T12:39:11.447Z,5.48
2023-03-12T12:43:28.220Z,5.87
2023-03-12T12:47:41.440Z,5.83
2023-03-12T12:51:50.619Z,6.06
2023-03-12T12:56:03.109Z,5.69
2023-03-12T13:00:21.008Z,5.45
2023-03-12T13:04:28.532Z,5.52
2023-03-12T13:08:58.707Z,6.03
2023-03-12T13:13:05.665Z,6.24
2023-03-12T13:17:27.943Z,6.17
2023-03-12T13:21:37.539Z,5.69
2023-03-12T13:25:58.119Z,5.12
2023-03-12T13:30:43.534Z,4.88
2023-03-12T13:34:48.767Z,4.79
2023-03-12T13:38:58.104Z,4.74
2023-03-12T13:43:07.074Z,4.69
2023-03-12T13:47:24.345Z,4.51
2023-03-12T13:51:29.334Z,4.05
2023-03-12T13:55:33.417Z,4.01
2023-03-12T13:59:36.808Z,3.87
2023-03-12T14:03:42.887Z,3.70
2023-03-12T14:08:07.656Z,3.62
2023-03-12T14:12:17.855Z,3.70
2023-03-12T14:16:32.460Z,3.82
2023-03-12T14:20:39.813Z,4.06
2023-03-12T14:24:51.899Z,4.45
2023-03-12T14:29:01.009Z,4.77
2023-03-12T14:33:05.581Z,5.00
2023-03-12T14:37:16.735Z,5.11
2023-03-12T14:41:25.729Z,5.08
2023-03-12T14:45:30.351Z,4.85
2023-03-12T14:49:33.814Z,4.71
2023-03-12T14:53:39.765Z,4.72
2023-03-12T14:57:44.444Z,4.61
2023-03-12T15:01:48.147Z,4.32
2023-03-12T15:05:53.427Z,4.07
2023-03-12T15:09:58.427Z,3.96
2023-03-12T15:14:09.377Z,3.97
2023-03-12T15:18:17.450Z,4.01
2023-03-12T15:22:24.881Z,3.91
2023-03-12T15:26:30.811Z,3.81
2023-03-12T15:30:36.987Z,3.68
2023-03-12T15:34:40.805Z,3.60
2023-03-12T15:38:47.539Z,3.53
2023-03-12T15:42:51.147Z,3.46
2023-03-12T15:47:04.538Z,3.39
2023-03-12T15:51:17.512Z,3.37
2023-03-12T15:55:27.165Z,3.31
2023-03-12T15:59:30.831Z,3.23
2023-03-12T16:03:35.446Z,3.14
2023-03-12T16:07:39.117Z,3.05
2023-03-12T16:11:41.765Z,2.94
2023-03-12T16:15:47.461Z,2.79
2023-03-12T16:19:52.201Z,2.67
2023-03-12T16:23:56.543Z,2.52
2023-03-12T16:28:03.365Z,2.43
2023-03-12T16:32:12.897Z,2.34
2023-03-12T16:36:19.379Z,2.31
2023-03-12T16:40:32.946Z,2.17
2023-03-12T16:44:36.816Z,1.88
2023-03-12T16:48:40.017Z,1.62
2023-03-12T16:52:47.059Z,1.38
2023-03-12T16:56:51.119Z,1.05
2023-03-12T17:00:55.725Z,0.78
2023-03-12T17:04:59.705Z,0.55
2023-03-12T17:09:06.905Z,0.32
2023-03-12T17:13:19.153Z,0.20
2023-03-12T17:17:23.445Z,0.08
2023-03-12T17:21:26.339Z,-0.01
2023-03-12T17:25:32.724Z,-0.11
2023-03-12T17:29:35.630Z,-0.24
2023-03-12T17:33:38.763Z,-0.28
2023-03-12T17:37:41.896Z,-0.29
2023-03-12T17:41:46.667Z,-0.28
2023-03-12T17:45:49.898Z,-0.25
2023-03-12T17:49:52.984Z,-0.19
2023-03-12T17:53:55.965Z,-0.13
2023-03-12T17:58:01.582Z,-0.10
2023-03-12T18:02:04.331Z,-0.09
2023-03-12T18:06:07.980Z,-0.09
2023-03-12T18:10:13.524Z,-0.10
2023-03-12T18:14:20.893Z,-0.13
2023-03-12T18:18:25.005Z,-0.13
2023-03-12T18:22:28.225Z,-0.14
2023-03-12T18:26:31.210Z,-0.10
2023-03-12T18:30:36.007Z,-0.05
2023-03-12T18:34:42.521Z,0.05
2023-03-12T18:38:45.518Z,0.13
2023-03-12T18:42:48.138Z,0.16
2023-03-12T18:46:54.212Z,0.11
2023-03-12T18:50:57.320Z,-0.03
2023-03-12T18:55:00.149Z,-0.22
2023-03-12T18:59:03.035Z,-0.38
2023-03-12T19:03:07.395Z,-0.49
2023-03-12T19:07:10.799Z,-0.62
2023-03-12T19:11:18.258Z,-0.76
2023-03-12T19:15:22.246Z,-0.86
2023-03-12T19:19:30.603Z,-0.95
2023-03-12T19:23:33.536Z,-1.08
2023-03-12T19:27:35.989Z,-1.21
2023-03-12T19:31:38.877Z,-1.31
2023-03-12T19:35:43.622Z,-1.32
2023-03-12T19:39:46.705Z,-1.32
2023-03-12T19:43:51.062Z,-1.31
2023-03-12T19:47:56.232Z,-1.32
2023-03-12T19:52:00.551Z,-1.31
2023-03-12T19:56:03.582Z,-1.28
2023-03-12T20:00:10.126Z,-1.28
2023-03-12T20:04:13.205Z,-1.29
2023-03-12T20:08:21.119Z,-1.38
2023-03-12T20:12:25.082Z,-1.57
2023-03-12T20:16:30.608Z,-1.79
2023-03-12T20:20:36.062Z,-1.96
2023-03-12T20:24:40.315Z,-2.13
2023-03-12T20:28:43.634Z,-2.21
2023-03-12T20:32:46.803Z,-2.22
2023-03-12T20:36:49.800Z,-2.15
2023-03-12T20:40:54.758Z,-1.90
2023-03-12T20:44:57.594Z,-1.76
2023-03-12T20:49:00.761Z,-1.65
2023-03-12T20:53:03.846Z,-1.61
2023-03-12T20:57:08.102Z,-1.60
2023-03-12T21:01:12.322Z,-1.54
2023-03-12T21:05:15.751Z,-1.46
2023-03-12T21:09:19.264Z,-1.39
2023-03-12T21:13:24.957Z,-1.36
2023-03-12T21:17:28.495Z,-1.31
2023-03-12T21:21:31.389Z,-1.20
2023-03-12T21:25:35.892Z,-1.07
2023-03-12T21:29:40.643Z,-0.96
2023-03-12T21:33:43.766Z,-0.85
2023-03-12T21:37:46.831Z,-0.78
2023-03-12T21:41:49.960Z,-0.72
2023-03-12T21:45:54.399Z,-0.68
2023-03-12T21:49:57.431Z,-0.67
2023-03-12T21:54:00.324Z,-0.66
2023-03-12T21:58:03.069Z,-0.65
2023-03-12T22:02:07.415Z,-0.59
2023-03-12T22:06:11.399Z,-0.50
2023-03-12T22:10:15.746Z,-0.44
2023-03-12T22:14:18.702Z,-0.34
2023-03-12T22:18:23.150Z,-0.26
2023-03-12T22:22:26.310Z,-0.12
2023-03-12T22:26:29.634Z,-0.01
2023-03-12T22:30:32.845Z,0.10
2023-03-12T22:34:37.776Z,0.24
2023-03-12T22:38:41.516Z,0.32
2023-03-12T22:42:50.684Z,0.38
2023-03-12T22:46:53.414Z,0.41
2023-03-12T22:50:57.659Z,0.42
2023-03-12T22:55:00.558Z,0.46
2023-03-12T22:59:03.250Z,0.61
2023-03-12T23:03:05.825Z,0.60
2023-03-12T23:07:14.622Z,0.65
2023-03-12T23:11:21.019Z,0.66
2023-03-12T23:15:29.115Z,0.68
2023-03-12T23:19:38.346Z,0.73
2023-03-12T23:23:45.118Z,0.80
2023-03-12T23:27:48.087Z,0.89
2023-03-12T23:31:51.224Z,0.94
2023-03-12T23:35:59.016Z,1.09
2023-03-12T23:40:06.652Z,1.29
2023-03-12T23:44:09.688Z,1.38
2023-03-12T23:48:12.690Z,1.38
2023-03-12T23:52:15.829Z,1.44
2023-03-12T23:56:21.649Z,1.47
